LHPP 230715Z AUTO 30005KT 270V020 CAVOK 12/07 Q1021
From batch tds/metars/production/2022/9/23/h07_m55_metars.cache.csv.gz
Observed at (9 days ago)
Identifier LHPP
talk